createdAt,value
2023-01-29T00:02:19.087Z,0.58
2023-01-29T00:04:47.014Z,0.67
2023-01-29T00:07:13.781Z,0.56
2023-01-29T00:09:40.493Z,0.56
2023-01-29T00:12:09.100Z,0.57
2023-01-29T00:14:36.021Z,0.56
2023-01-29T00:17:02.674Z,0.49
2023-01-29T00:19:29.283Z,0.55
2023-01-29T00:21:57.376Z,0.47
2023-01-29T00:24:24.024Z,0.45
2023-01-29T00:26:50.853Z,0.39
2023-01-29T00:29:19.669Z,0.48
2023-01-29T00:31:46.417Z,0.45
2023-01-29T00:34:13.338Z,0.44
2023-01-29T00:36:43.191Z,0.45
2023-01-29T00:39:14.885Z,0.46
2023-01-29T00:42:00.167Z,0.39
2023-01-29T00:44:45.071Z,0.40
2023-01-29T00:47:30.784Z,0.33
2023-01-29T00:49:57.935Z,0.35
2023-01-29T00:52:24.821Z,0.22
2023-01-29T00:54:55.085Z,0.27
2023-01-29T00:57:22.522Z,0.24
2023-01-29T00:59:49.092Z,0.10
2023-01-29T01:02:34.729Z,0.01
2023-01-29T01:05:06.109Z,-0.13
2023-01-29T01:07:34.630Z,-0.28
2023-01-29T01:10:19.742Z,-0.32
2023-01-29T01:12:49.271Z,-0.30
2023-01-29T01:15:15.867Z,-0.39
2023-01-29T01:17:45.274Z,-0.43
2023-01-29T01:20:12.958Z,-0.44
2023-01-29T01:22:39.602Z,-0.47
2023-01-29T01:25:06.575Z,-0.50
2023-01-29T01:27:34.784Z,-0.72
2023-01-29T01:30:01.425Z,-0.76
2023-01-29T01:32:28.748Z,-1.07
2023-01-29T01:34:55.350Z,-1.14
2023-01-29T01:37:22.213Z,-1.35
2023-01-29T01:39:49.103Z,-1.52
2023-01-29T01:42:15.792Z,-1.86
2023-01-29T01:45:04.554Z,-1.84
2023-01-29T01:47:48.518Z,-2.09
2023-01-29T01:50:35.226Z,-2.03
2023-01-29T01:53:08.008Z,-2.15
2023-01-29T01:55:37.918Z,-2.11
2023-01-29T01:58:16.271Z,-2.01
2023-01-29T02:00:43.093Z,-1.82
2023-01-29T02:03:30.069Z,-1.82
2023-01-29T02:06:17.587Z,-1.99
2023-01-29T02:09:13.242Z,-1.98
2023-01-29T02:11:42.686Z,-2.17
2023-01-29T02:14:09.370Z,-2.00
2023-01-29T02:16:36.636Z,-2.18
2023-01-29T02:19:10.321Z,-2.33
2023-01-29T02:22:01.204Z,-2.47
2023-01-29T02:25:09.949Z,-2.66
2023-01-29T02:27:50.356Z,-2.79
2023-01-29T02:30:27.006Z,-2.68
2023-01-29T02:33:07.471Z,-3.10
2023-01-29T02:36:00.329Z,-3.11
2023-01-29T02:38:45.668Z,-3.16
2023-01-29T02:41:56.156Z,-3.43
2023-01-29T02:44:41.028Z,-3.60
2023-01-29T02:47:21.868Z,-3.87
2023-01-29T02:50:05.091Z,-3.85
2023-01-29T02:52:43.288Z,-3.89
2023-01-29T02:55:15.950Z,-4.05
2023-01-29T02:57:46.945Z,-4.01
2023-01-29T03:00:17.434Z,-3.99
2023-01-29T03:02:59.390Z,-4.07
2023-01-29T03:05:45.352Z,-4.22
2023-01-29T03:08:18.972Z,-4.05
2023-01-29T03:11:04.703Z,-4.20
2023-01-29T03:13:50.422Z,-4.15
2023-01-29T03:16:32.472Z,-4.01
2023-01-29T03:19:05.834Z,-4.22
2023-01-29T03:22:00.844Z,-4.14
2023-01-29T03:24:58.436Z,-4.26
2023-01-29T03:27:49.595Z,-4.22
2023-01-29T03:30:37.528Z,-4.29
2023-01-29T03:33:09.932Z,-4.23
2023-01-29T03:35:42.008Z,-4.27
2023-01-29T03:38:11.412Z,-4.02
2023-01-29T03:41:13.485Z,-4.17
2023-01-29T03:44:20.175Z,-3.85
2023-01-29T03:46:49.522Z,-3.80
2023-01-29T03:49:21.962Z,-3.56
2023-01-29T03:52:08.231Z,-3.12
2023-01-29T03:55:06.656Z,-3.00
2023-01-29T03:57:45.718Z,-2.79
2023-01-29T04:00:24.075Z,-2.61
2023-01-29T04:03:02.252Z,-2.55
2023-01-29T04:05:34.693Z,-2.33
2023-01-29T04:08:08.298Z,-2.14
2023-01-29T04:10:39.117Z,-2.11
2023-01-29T04:13:16.687Z,-2.11
2023-01-29T04:15:48.827Z,-1.97
2023-01-29T04:18:15.401Z,-1.93
2023-01-29T04:20:45.063Z,-1.87
2023-01-29T04:23:23.928Z,-1.86
2023-01-29T04:26:06.882Z,-1.75
2023-01-29T04:28:58.776Z,-1.81
2023-01-29T04:31:31.496Z,-1.86
2023-01-29T04:34:35.307Z,-1.81
2023-01-29T04:37:20.822Z,-1.76
2023-01-29T04:40:00.475Z,-1.74
2023-01-29T04:42:37.146Z,-1.70
2023-01-29T04:45:12.581Z,-1.68
2023-01-29T04:48:00.834Z,-1.62
2023-01-29T04:50:38.144Z,-1.58
2023-01-29T04:53:24.305Z,-1.48
2023-01-29T04:56:26.974Z,-1.49
2023-01-29T04:59:00.079Z,-1.51
2023-01-29T05:01:30.719Z,-1.46
2023-01-29T05:03:57.473Z,-1.49
2023-01-29T05:06:27.184Z,-1.49
2023-01-29T05:08:57.873Z,-1.57
2023-01-29T05:11:27.021Z,-1.60
2023-01-29T05:13:54.104Z,-1.57
2023-01-29T05:16:28.238Z,-1.60
2023-01-29T05:18:55.434Z,-1.49
2023-01-29T05:21:23.446Z,-1.45
2023-01-29T05:24:08.814Z,-1.45
2023-01-29T05:26:54.655Z,-1.43
2023-01-29T05:29:22.017Z,-1.44
2023-01-29T05:31:48.681Z,-1.37
2023-01-29T05:34:15.399Z,-1.35
2023-01-29T05:36:42.017Z,-1.29
2023-01-29T05:39:08.700Z,-1.31
2023-01-29T05:41:35.335Z,-1.31
2023-01-29T05:44:01.928Z,-1.31
2023-01-29T05:46:28.594Z,-1.36
2023-01-29T05:48:57.634Z,-1.30
2023-01-29T05:51:31.346Z,-1.29
2023-01-29T05:53:57.943Z,-1.28
2023-01-29T05:56:25.441Z,-1.30
2023-01-29T05:58:52.053Z,-1.34
2023-01-29T06:01:23.058Z,-1.26
2023-01-29T06:03:49.666Z,-1.22
2023-01-29T06:06:16.997Z,-1.23
2023-01-29T06:08:43.723Z,-1.24
2023-01-29T06:11:12.739Z,-1.27
2023-01-29T06:13:39.490Z,-1.30
2023-01-29T06:16:12.603Z,-1.24
2023-01-29T06:18:40.292Z,-1.25
2023-01-29T06:21:09.595Z,-1.33
2023-01-29T06:23:36.176Z,-1.24
2023-01-29T06:26:14.423Z,-1.27
2023-01-29T06:28:41.901Z,-1.32
2023-01-29T06:31:37.836Z,-1.18
2023-01-29T06:33:56.524Z,-1.13
2023-01-29T06:36:23.184Z,-1.15
2023-01-29T06:38:49.890Z,-1.02
2023-01-29T06:41:19.297Z,-1.10
2023-01-29T06:43:46.325Z,-1.02
2023-01-29T06:46:14.927Z,-1.03
2023-01-29T06:48:43.304Z,-0.91
2023-01-29T06:51:10.807Z,-0.96
2023-01-29T06:53:38.785Z,-0.79
2023-01-29T06:56:08.863Z,-0.76
2023-01-29T06:58:38.569Z,-0.77
2023-01-29T07:01:25.537Z,-0.78
2023-01-29T07:03:59.442Z,-0.60
2023-01-29T07:06:32.210Z,-0.54
2023-01-29T07:08:58.857Z,-0.50
2023-01-29T07:11:25.529Z,-0.41
2023-01-29T07:13:54.755Z,-0.21
2023-01-29T07:16:21.446Z,-0.09
2023-01-29T07:18:48.096Z,-0.05
2023-01-29T07:21:18.518Z,-0.11
2023-01-29T07:23:45.104Z,-0.03
2023-01-29T07:26:12.082Z,0.03
2023-01-29T07:28:40.008Z,0.07
2023-01-29T07:31:13.482Z,-0.03
2023-01-29T07:33:42.438Z,0.22
2023-01-29T07:36:10.469Z,0.24
2023-01-29T07:38:37.079Z,0.30
2023-01-29T07:41:06.063Z,0.67
2023-01-29T07:43:32.841Z,0.45
2023-01-29T07:46:04.431Z,0.47
2023-01-29T07:48:35.055Z,0.45
2023-01-29T07:51:01.569Z,0.57
2023-01-29T07:53:29.163Z,0.34
2023-01-29T07:55:56.213Z,0.48
2023-01-29T07:58:25.133Z,0.66
2023-01-29T08:00:59.236Z,0.83
2023-01-29T08:03:25.951Z,0.78
2023-01-29T08:05:54.865Z,0.97
2023-01-29T08:08:23.552Z,0.82
2023-01-29T08:10:50.158Z,0.77
2023-01-29T08:13:19.835Z,0.73
2023-01-29T08:15:48.869Z,0.85
2023-01-29T08:18:15.587Z,0.92
2023-01-29T08:20:42.179Z,1.16
2023-01-29T08:23:16.527Z,0.99
2023-01-29T08:25:44.600Z,0.84
2023-01-29T08:28:16.048Z,0.93
2023-01-29T08:30:44.125Z,1.06
2023-01-29T08:33:11.039Z,1.16
2023-01-29T08:35:38.458Z,0.97
2023-01-29T08:38:05.875Z,1.06
2023-01-29T08:40:34.191Z,1.11
2023-01-29T08:43:04.014Z,0.74
2023-01-29T08:45:34.564Z,0.89
2023-01-29T08:48:01.187Z,0.98
2023-01-29T08:50:30.605Z,0.87
2023-01-29T08:53:01.517Z,1.01
2023-01-29T08:55:31.717Z,0.81
2023-01-29T08:57:58.487Z,0.86
2023-01-29T09:00:28.950Z,0.56
2023-01-29T09:03:03.034Z,0.77
2023-01-29T09:05:34.216Z,0.74
2023-01-29T09:08:00.899Z,0.52
2023-01-29T09:10:32.190Z,0.62
2023-01-29T09:12:58.969Z,0.50
2023-01-29T09:15:28.054Z,0.47
2023-01-29T09:17:54.766Z,0.71
2023-01-29T09:20:21.667Z,0.33
2023-01-29T09:22:49.436Z,0.60
2023-01-29T09:25:18.495Z,0.73
2023-01-29T09:27:45.279Z,0.74
2023-01-29T09:30:13.775Z,0.71
2023-01-29T09:32:53.537Z,0.45
2023-01-29T09:35:23.815Z,0.93
2023-01-29T09:37:54.265Z,0.73
2023-01-29T09:40:38.254Z,0.91
2023-01-29T09:43:14.031Z,0.57
2023-01-29T09:46:08.470Z,0.80
2023-01-29T09:48:36.919Z,0.64
2023-01-29T09:51:13.681Z,0.77
2023-01-29T09:53:48.546Z,0.61
2023-01-29T09:56:21.479Z,0.71
2023-01-29T09:58:48.388Z,0.84
2023-01-29T10:01:34.420Z,1.03
2023-01-29T10:04:38.069Z,1.26
2023-01-29T10:07:12.175Z,1.40
2023-01-29T10:10:03.304Z,1.51
2023-01-29T10:12:54.567Z,1.31
2023-01-29T10:15:32.924Z,1.31
2023-01-29T10:18:37.602Z,1.49
2023-01-29T10:21:29.036Z,1.52
2023-01-29T10:24:28.484Z,1.50
2023-01-29T10:26:55.924Z,1.45
2023-01-29T10:29:23.355Z,1.24
2023-01-29T10:31:56.926Z,1.34
2023-01-29T10:34:33.970Z,1.28
2023-01-29T10:37:02.206Z,1.61
2023-01-29T10:39:31.129Z,1.57
2023-01-29T10:42:03.819Z,1.35
2023-01-29T10:44:55.482Z,1.37
2023-01-29T10:47:52.643Z,1.20
2023-01-29T10:50:46.893Z,1.13
2023-01-29T10:53:29.357Z,1.05
2023-01-29T10:56:30.127Z,1.18
2023-01-29T10:59:01.664Z,0.80
2023-01-29T11:01:28.309Z,0.89
2023-01-29T11:04:04.361Z,0.87
2023-01-29T11:06:32.310Z,1.02
2023-01-29T11:09:39.190Z,1.16
2023-01-29T11:12:13.503Z,0.85
2023-01-29T11:14:53.978Z,0.93
2023-01-29T11:17:23.345Z,1.03
2023-01-29T11:19:51.729Z,0.97
2023-01-29T11:22:25.662Z,1.13
2023-01-29T11:25:12.625Z,0.88
2023-01-29T11:27:55.019Z,0.87
2023-01-29T11:30:32.419Z,0.81
2023-01-29T11:33:22.539Z,0.64
2023-01-29T11:35:49.232Z,0.61
2023-01-29T11:38:17.795Z,0.69
2023-01-29T11:40:44.938Z,0.91
2023-01-29T11:43:32.194Z,1.09
2023-01-29T11:46:05.782Z,1.28
2023-01-29T11:48:40.954Z,1.38
2023-01-29T11:51:10.611Z,1.31
2023-01-29T11:53:38.763Z,1.35
2023-01-29T11:56:17.070Z,0.90
2023-01-29T11:58:52.809Z,1.31
2023-01-29T12:01:34.378Z,1.78
2023-01-29T12:04:04.357Z,1.98
2023-01-29T12:06:39.225Z,1.64
2023-01-29T12:09:16.680Z,1.32
2023-01-29T12:11:44.004Z,0.98
2023-01-29T12:14:22.830Z,1.11
2023-01-29T12:16:52.283Z,1.31
2023-01-29T12:19:34.523Z,0.74
2023-01-29T12:22:14.757Z,0.64
2023-01-29T12:25:09.649Z,0.96
2023-01-29T12:27:49.108Z,0.89
2023-01-29T12:30:27.670Z,1.17
2023-01-29T12:33:15.254Z,0.97
2023-01-29T12:35:48.034Z,1.11
2023-01-29T12:38:20.141Z,1.38
2023-01-29T12:40:56.341Z,0.84
2023-01-29T12:43:46.766Z,0.80
2023-01-29T12:46:31.158Z,0.57
2023-01-29T12:49:01.947Z,0.53
2023-01-29T12:51:36.399Z,0.57
2023-01-29T12:54:22.375Z,0.75
2023-01-29T12:56:53.322Z,0.79
2023-01-29T12:59:31.803Z,0.75
2023-01-29T13:02:18.574Z,1.20
2023-01-29T13:04:56.102Z,0.91
2023-01-29T13:07:28.666Z,1.04
2023-01-29T13:10:01.914Z,1.34
2023-01-29T13:12:30.269Z,1.04
2023-01-29T13:15:10.421Z,1.45
2023-01-29T13:17:42.840Z,0.84
2023-01-29T13:20:19.724Z,1.20
2023-01-29T13:22:49.984Z,1.14
2023-01-29T13:25:20.032Z,1.24
2023-01-29T13:27:49.647Z,1.22
2023-01-29T13:30:30.117Z,1.21
2023-01-29T13:33:09.346Z,1.39
2023-01-29T13:35:42.882Z,1.59
2023-01-29T13:38:38.745Z,1.63
2023-01-29T13:41:11.717Z,1.90
2023-01-29T13:43:49.327Z,1.86
2023-01-29T13:46:22.501Z,2.48
2023-01-29T13:48:52.278Z,1.68
2023-01-29T13:51:25.122Z,2.21
2023-01-29T13:54:49.889Z,2.61
2023-01-29T14:08:09.995Z,1.35
2023-01-29T14:10:37.956Z,1.51
2023-01-29T14:13:04.454Z,1.63
2023-01-29T14:15:38.723Z,1.19
2023-01-29T14:18:08.291Z,1.24
2023-01-29T14:20:47.257Z,1.11
2023-01-29T14:23:34.345Z,0.66
2023-01-29T14:26:04.597Z,0.65
2023-01-29T14:28:34.108Z,0.77
2023-01-29T14:31:01.211Z,0.59
2023-01-29T14:33:43.434Z,0.40
2023-01-29T14:36:15.021Z,0.26
2023-01-29T14:38:47.905Z,0.13
2023-01-29T14:41:31.532Z,-0.03
2023-01-29T14:44:52.214Z,-0.19
2023-01-29T14:47:49.801Z,-0.48
2023-01-29T14:50:28.787Z,-0.67
2023-01-29T14:53:09.761Z,-0.74
2023-01-29T14:55:52.677Z,-0.81
2023-01-29T14:58:43.167Z,-0.80
2023-01-29T15:01:36.394Z,-0.80
2023-01-29T15:04:20.203Z,-0.93
2023-01-29T15:06:51.237Z,-1.01
2023-01-29T15:09:36.890Z,-1.06
2023-01-29T15:12:08.247Z,-1.22
2023-01-29T15:15:16.785Z,-1.41
2023-01-29T15:17:57.366Z,-1.64
2023-01-29T15:20:31.626Z,-1.71
2023-01-29T15:22:59.450Z,-1.76
2023-01-29T15:25:38.814Z,-1.89
2023-01-29T15:28:10.235Z,-1.99
2023-01-29T15:30:40.300Z,-2.04
2023-01-29T15:33:10.687Z,-2.08
2023-01-29T15:35:39.683Z,-2.20
2023-01-29T15:38:15.111Z,-2.29
2023-01-29T15:40:42.045Z,-2.34
2023-01-29T15:43:31.128Z,-2.45
2023-01-29T15:46:04.743Z,-2.46
2023-01-29T15:48:35.887Z,-2.56
2023-01-29T15:51:09.342Z,-2.66
2023-01-29T15:53:44.141Z,-2.54
2023-01-29T15:56:13.196Z,-2.54
2023-01-29T15:58:40.461Z,-2.53
2023-01-29T16:01:09.425Z,-2.63
2023-01-29T16:03:38.049Z,-2.71
2023-01-29T16:06:09.889Z,-2.71
2023-01-29T16:08:38.651Z,-2.82
2023-01-29T16:11:07.691Z,-2.81
2023-01-29T16:13:48.602Z,-2.75
2023-01-29T16:16:15.284Z,-2.89
2023-01-29T16:18:58.940Z,-2.97
2023-01-29T16:21:33.189Z,-2.99
2023-01-29T16:24:10.088Z,-3.08
2023-01-29T16:26:39.710Z,-3.17
2023-01-29T16:29:09.934Z,-3.33
2023-01-29T16:31:37.771Z,-3.23
2023-01-29T16:34:26.707Z,-3.22
2023-01-29T16:36:55.485Z,-3.13
2023-01-29T16:39:31.691Z,-3.02
2023-01-29T16:42:20.395Z,-3.11
2023-01-29T16:44:51.498Z,-3.14
2023-01-29T16:47:23.884Z,-3.07
2023-01-29T16:49:55.075Z,-2.96
2023-01-29T16:52:30.468Z,-2.89
2023-01-29T16:55:21.214Z,-2.97
2023-01-29T16:57:55.909Z,-2.79
2023-01-29T17:00:30.877Z,-2.81
2023-01-29T17:03:07.589Z,-2.83
2023-01-29T17:05:39.239Z,-2.86
2023-01-29T17:08:07.403Z,-2.91
2023-01-29T17:10:43.172Z,-2.96
2023-01-29T17:13:25.359Z,-2.79
2023-01-29T17:15:52.042Z,-2.75
2023-01-29T17:18:24.019Z,-2.70
2023-01-29T17:27:22.981Z,-2.82
2023-01-29T17:29:53.515Z,-2.82
2023-01-29T17:32:20.360Z,-2.89
2023-01-29T17:34:47.169Z,-2.82
2023-01-29T17:37:15.852Z,-2.72
2023-01-29T17:39:43.401Z,-2.68
2023-01-29T17:42:15.159Z,-2.71
2023-01-29T17:44:43.055Z,-2.75
2023-01-29T17:47:16.959Z,-2.83
2023-01-29T17:49:43.653Z,-2.88
2023-01-29T17:52:10.525Z,-2.90
2023-01-29T17:54:37.219Z,-2.90
2023-01-29T17:57:03.871Z,-2.96
2023-01-29T17:59:38.682Z,-2.97
2023-01-29T18:02:29.748Z,-2.97
2023-01-29T18:04:56.561Z,-3.02
2023-01-29T18:07:23.180Z,-3.15
2023-01-29T18:09:49.773Z,-3.17
2023-01-29T18:12:16.467Z,-3.18
2023-01-29T18:14:43.050Z,-3.24
2023-01-29T18:17:09.759Z,-3.34
2023-01-29T18:19:36.344Z,-3.50
2023-01-29T18:22:02.905Z,-3.45
2023-01-29T18:24:30.049Z,-3.50
2023-01-29T18:26:56.732Z,-3.38
2023-01-29T18:29:29.415Z,-3.47
2023-01-29T18:31:56.414Z,-3.44
2023-01-29T18:34:28.163Z,-3.55
2023-01-29T18:36:54.740Z,-3.53
2023-01-29T18:39:21.395Z,-3.59
2023-01-29T18:41:47.977Z,-3.71
2023-01-29T18:44:14.627Z,-3.80
2023-01-29T18:46:41.231Z,-3.67
2023-01-29T18:49:07.890Z,-3.67
2023-01-29T18:51:34.543Z,-3.78
2023-01-29T18:54:01.205Z,-3.90
2023-01-29T18:56:27.820Z,-3.84
2023-01-29T18:58:57.222Z,-3.83
2023-01-29T19:01:23.974Z,-3.75
2023-01-29T19:03:50.578Z,-3.92
2023-01-29T19:06:19.579Z,-3.91
2023-01-29T19:08:50.050Z,-3.88
2023-01-29T19:11:19.548Z,-3.92
2023-01-29T19:13:49.857Z,-3.90
2023-01-29T19:16:16.497Z,-4.05
2023-01-29T19:18:43.741Z,-3.99
2023-01-29T19:21:13.590Z,-3.88
2023-01-29T19:23:42.419Z,-3.91
2023-01-29T19:26:11.614Z,-3.95
2023-01-29T19:28:38.285Z,-4.00
2023-01-29T19:31:07.755Z,-4.00
2023-01-29T19:33:34.351Z,-3.94
2023-01-29T19:36:01.750Z,-4.02
2023-01-29T19:38:28.717Z,-4.06
2023-01-29T19:40:57.958Z,-4.02
2023-01-29T19:43:24.550Z,-4.21
2023-01-29T19:46:02.210Z,-4.20
2023-01-29T19:48:29.276Z,-4.16
2023-01-29T19:51:12.851Z,-4.10
2023-01-29T19:53:46.181Z,-4.16
2023-01-29T19:56:15.572Z,-4.22
2023-01-29T19:58:45.026Z,-4.36
2023-01-29T20:01:18.465Z,-4.37
2023-01-29T20:03:49.104Z,-4.50
2023-01-29T20:06:16.982Z,-4.40
2023-01-29T20:08:47.535Z,-4.34
2023-01-29T20:11:17.021Z,-4.42
2023-01-29T20:13:43.883Z,-4.34
2023-01-29T20:16:10.514Z,-4.34
2023-01-29T20:18:37.119Z,-4.22
2023-01-29T20:21:09.332Z,-4.21
2023-01-29T20:23:38.613Z,-4.31
2023-01-29T20:26:06.987Z,-4.22
2023-01-29T20:28:34.609Z,-4.34
2023-01-29T20:31:01.434Z,-4.39
2023-01-29T20:33:28.232Z,-4.44
2023-01-29T20:35:58.371Z,-4.74
2023-01-29T20:38:30.208Z,-4.65
2023-01-29T20:41:06.199Z,-4.70
2023-01-29T20:43:33.699Z,-4.69
2023-01-29T20:46:01.083Z,-4.89
2023-01-29T20:48:27.855Z,-4.91
2023-01-29T20:50:54.458Z,-4.83
2023-01-29T20:53:21.060Z,-4.87
2023-01-29T20:55:47.677Z,-4.82
2023-01-29T20:58:14.673Z,-4.81
2023-01-29T21:00:41.426Z,-4.86
2023-01-29T21:03:08.088Z,-4.94
2023-01-29T21:05:34.635Z,-4.85
2023-01-29T21:08:01.215Z,-4.91
2023-01-29T21:10:27.855Z,-4.92
2023-01-29T21:12:54.997Z,-5.11
2023-01-29T21:15:21.728Z,-5.19
2023-01-29T21:17:48.421Z,-5.10
2023-01-29T21:20:15.315Z,-5.07
2023-01-29T21:22:43.920Z,-4.92
2023-01-29T21:25:11.415Z,-4.93
2023-01-29T21:27:37.950Z,-4.93
2023-01-29T21:30:05.031Z,-4.77
2023-01-29T21:32:31.602Z,-4.75
2023-01-29T21:34:58.251Z,-4.75
2023-01-29T21:37:24.859Z,-4.70
2023-01-29T21:39:51.451Z,-4.62
2023-01-29T21:42:36.584Z,-4.64
2023-01-29T21:45:03.571Z,-4.75
2023-01-29T21:47:30.171Z,-4.85
2023-01-29T21:49:56.753Z,-4.92
2023-01-29T21:52:23.318Z,-5.07
2023-01-29T21:54:50.268Z,-5.11
2023-01-29T21:57:17.372Z,-5.26
2023-01-29T21:59:44.089Z,-5.33
2023-01-29T22:02:15.665Z,-5.26
2023-01-29T22:04:43.214Z,-5.13
2023-01-29T22:07:11.247Z,-5.13
2023-01-29T22:09:38.829Z,-5.30
2023-01-29T22:12:07.432Z,-5.31
2023-01-29T22:14:34.644Z,-5.25
2023-01-29T22:17:01.688Z,-4.97
2023-01-29T22:19:29.446Z,-4.80
2023-01-29T22:21:56.401Z,-4.68
2023-01-29T22:24:22.997Z,-4.82
2023-01-29T22:26:49.704Z,-4.87
2023-01-29T22:29:19.631Z,-4.86
2023-01-29T22:31:46.293Z,-4.85
2023-01-29T22:34:14.228Z,-4.97
2023-01-29T22:36:41.017Z,-4.74
2023-01-29T22:39:08.787Z,-4.71
2023-01-29T22:41:36.171Z,-4.75
2023-01-29T22:44:03.066Z,-4.57
2023-01-29T22:46:29.759Z,-4.51
2023-01-29T22:48:56.693Z,-4.51
2023-01-29T22:51:23.880Z,-4.52
2023-01-29T22:53:52.848Z,-4.42
2023-01-29T22:56:21.905Z,-4.42
2023-01-29T22:58:51.843Z,-4.53
2023-01-29T23:01:20.101Z,-4.46
2023-01-29T23:03:47.213Z,-4.48
2023-01-29T23:06:15.379Z,-4.64
2023-01-29T23:08:42.170Z,-4.63
2023-01-29T23:11:14.372Z,-4.78
2023-01-29T23:13:47.316Z,-4.80
2023-01-29T23:16:15.222Z,-4.79
2023-01-29T23:18:42.702Z,-4.83
2023-01-29T23:21:10.099Z,-4.81
2023-01-29T23:23:37.546Z,-4.78
2023-01-29T23:26:25.880Z,-4.83
2023-01-29T23:28:52.751Z,-4.84
2023-01-29T23:31:19.491Z,-4.87
2023-01-29T23:33:46.253Z,-4.94
2023-01-29T23:36:12.900Z,-5.06
2023-01-29T23:38:39.445Z,-5.13
2023-01-29T23:41:06.394Z,-5.17
2023-01-29T23:43:33.447Z,-5.25
2023-01-29T23:46:00.495Z,-5.28
2023-01-29T23:48:27.284Z,-5.36
2023-01-29T23:50:53.872Z,-5.24
2023-01-29T23:53:20.585Z,-5.38
2023-01-29T23:56:01.702Z,-5.45
2023-01-29T23:58:29.481Z,-5.63
